Time;durP1;ratioP1;P1;durP2;ratioP2;P2;SDS_P1;SDS_P2;PMS_P1;PMS_P2;Temp;Humidity;BMP_temperature;BMP_pressure;BME280_temperature;BME280_humidity;BME280_pressure;Samples;Min_cycle;Max_cycle;Signal;HPM_P1;HPM_P2
2024/03/08 00:01:08;;;;;;;19.23;12.10;;;;;;;;;;4983276;28;20552;-83
2024/03/08 00:04:13;;;;;;;22.47;13.00;;;;;;;;;;4982787;28;20567;-83
2024/03/08 00:07:17;;;;;;;22.43;12.53;;;;;;;;;;4960281;29;20599;-83
2024/03/08 00:10:21;;;;;;;22.83;13.40;;;;;;;;;;4971306;28;20627;-83
2024/03/08 00:13:25;;;;;;;23.43;12.97;;;;;;;;;;4971206;28;20543;-84
2024/03/08 00:16:30;;;;;;;25.30;13.60;;;;;;;;;;4982313;28;20547;-83
2024/03/08 00:19:34;;;;;;;20.70;12.63;;;;;;;;;;4960424;29;20626;-83
2024/03/08 00:22:38;;;;;;;22.30;13.13;;;;;;;;;;4970876;28;20556;-83
2024/03/08 00:25:42;;;;;;;22.87;13.20;;;;;;;;;;4982398;28;21103;-83
2024/03/08 00:28:46;;;;;;;20.63;12.97;;;;;;;;;;4971447;28;20599;-84
2024/03/08 00:31:50;;;;;;;22.07;13.40;;;;;;;;;;4971116;28;20544;-83
2024/03/08 00:34:54;;;;;;;23.77;13.23;;;;;;;;;;4960454;29;20897;-84
2024/03/08 00:37:58;;;;;;;21.80;13.03;;;;;;;;;;4970995;28;20578;-83
2024/03/08 00:41:03;;;;;;;23.03;12.87;;;;;;;;;;4970270;28;20618;-83
2024/03/08 00:44:07;;;;;;;23.57;12.10;;;;;;;;;;4970827;28;20547;-83
2024/03/08 00:47:11;;;;;;;23.73;13.40;;;;;;;;;;4970430;28;21087;-84
2024/03/08 00:50:15;;;;;;;23.07;13.80;;;;;;;;;;4959283;29;20650;-83
2024/03/08 00:53:19;;;;;;;22.63;13.73;;;;;;;;;;4959651;29;21100;-83
2024/03/08 00:56:24;;;;;;;25.03;12.60;;;;;;;;;;4969760;28;20548;-83
2024/03/08 00:59:30;;;;;;;23.40;14.27;;;;;;;;;;4959066;29;20630;-83
2024/03/08 01:02:35;;;;;;;21.57;12.67;;;;;;;;;;4959605;29;20560;-83
2024/03/08 01:05:39;;;;;;;22.07;12.73;;;;;;;;;;4970109;28;20548;-83
2024/03/08 01:08:43;;;;;;;19.03;11.97;;;;;;;;;;4959283;29;20611;-84
2024/03/08 01:11:47;;;;;;;20.73;13.23;;;;;;;;;;4959409;29;20552;-83
2024/03/08 01:14:51;;;;;;;20.73;12.90;;;;;;;;;;4980542;28;20543;-83
2024/03/08 01:17:56;;;;;;;24.40;13.60;;;;;;;;;;4958042;29;20559;-84
2024/03/08 01:21:00;;;;;;;25.60;14.23;;;;;;;;;;4980359;28;21198;-83
2024/03/08 01:24:04;;;;;;;24.47;13.83;;;;;;;;;;4959220;29;20603;-83
2024/03/08 01:27:09;;;;;;;24.30;14.10;;;;;;;;;;4980422;28;20547;-83
2024/03/08 01:30:13;;;;;;;24.80;14.93;;;;;;;;;;4968941;28;21171;-83
2024/03/08 01:33:17;;;;;;;25.33;13.60;;;;;;;;;;4980131;28;20543;-83
2024/03/08 01:36:21;;;;;;;26.00;14.17;;;;;;;;;;4957718;29;20936;-83
2024/03/08 01:39:25;;;;;;;24.93;13.97;;;;;;;;;;4958776;29;20615;-83
2024/03/08 01:42:29;;;;;;;21.30;13.07;;;;;;;;;;4969101;28;20540;-83
2024/03/08 01:45:34;;;;;;;26.33;14.27;;;;;;;;;;4957677;29;20544;-83
2024/03/08 01:48:40;;;;;;;23.27;14.23;;;;;;;;;;4958161;29;20587;-84
2024/03/08 01:51:45;;;;;;;21.53;13.40;;;;;;;;;;4968739;28;20539;-83
2024/03/08 01:54:49;;;;;;;22.63;13.27;;;;;;;;;;4968323;28;20563;-83
2024/03/08 01:57:55;;;;;;;23.37;13.90;;;;;;;;;;4974278;28;20544;-83
2024/03/08 02:00:59;;;;;;;23.40;14.13;;;;;;;;;;4979524;28;20622;-83
2024/03/08 02:04:05;;;;;;;23.80;14.27;;;;;;;;;;4968812;28;20539;-83
2024/03/08 02:07:10;;;;;;;24.67;14.43;;;;;;;;;;4968467;28;20544;-83
2024/03/08 02:10:15;;;;;;;24.67;14.20;;;;;;;;;;4979359;28;20611;-84
2024/03/08 02:13:19;;;;;;;21.83;13.80;;;;;;;;;;4957354;28;21104;-83
2024/03/08 02:16:23;;;;;;;25.40;13.87;;;;;;;;;;4957550;29;20551;-83
2024/03/08 02:19:27;;;;;;;24.10;14.57;;;;;;;;;;4958175;29;20615;-83
2024/03/08 02:22:32;;;;;;;23.07;13.63;;;;;;;;;;4956920;28;20547;-83
2024/03/08 02:25:36;;;;;;;26.17;14.20;;;;;;;;;;4979643;28;20544;-83
2024/03/08 02:28:43;;;;;;;24.53;14.80;;;;;;;;;;4979293;28;20599;-84
2024/03/08 02:31:47;;;;;;;23.63;14.17;;;;;;;;;;4957190;29;20559;-83
2024/03/08 02:34:56;;;;;;;26.73;14.37;;;;;;;;;;4957133;29;20544;-83
2024/03/08 02:38:00;;;;;;;26.00;14.67;;;;;;;;;;4957195;29;20556;-83
2024/03/08 02:41:04;;;;;;;26.80;14.97;;;;;;;;;;4978740;28;20547;-84
2024/03/08 02:44:09;;;;;;;24.67;15.53;;;;;;;;;;4957106;29;20548;-83
2024/03/08 02:47:13;;;;;;;27.47;15.67;;;;;;;;;;4968144;28;20555;-83
2024/03/08 02:50:17;;;;;;;30.53;15.47;;;;;;;;;;4956746;29;20638;-84
2024/03/08 02:53:22;;;;;;;27.97;15.93;;;;;;;;;;4956725;29;20555;-84
2024/03/08 02:56:26;;;;;;;27.20;15.30;;;;;;;;;;4967489;28;20556;-84
2024/03/08 02:59:30;;;;;;;30.40;15.40;;;;;;;;;;4956340;29;20622;-84
2024/03/08 03:02:35;;;;;;;27.47;14.03;;;;;;;;;;4967184;28;20560;-83
2024/03/08 03:05:41;;;;;;;23.60;15.17;;;;;;;;;;4982278;28;20551;-84
2024/03/08 03:08:45;;;;;;;27.77;15.70;;;;;;;;;;4960867;29;20602;-84
2024/03/08 03:11:49;;;;;;;27.50;15.67;;;;;;;;;;4982662;28;20559;-84
2024/03/08 03:14:53;;;;;;;28.37;16.90;;;;;;;;;;4959857;29;20543;-83
2024/03/08 03:17:57;;;;;;;25.57;16.20;;;;;;;;;;4960283;28;20563;-83
2024/03/08 03:21:07;;;;;;;27.20;16.57;;;;;;;;;;4971425;28;20615;-83
2024/03/08 03:24:12;;;;;;;28.33;16.43;;;;;;;;;;4982227;28;20551;-83
2024/03/08 03:27:15;;;;;;;27.93;16.70;;;;;;;;;;4970881;28;20543;-84
2024/03/08 03:30:22;;;;;;;25.87;15.43;;;;;;;;;;4970972;28;20673;-83
2024/03/08 03:33:27;;;;;;;28.43;16.20;;;;;;;;;;4949146;29;20544;-84
2024/03/08 03:36:31;;;;;;;30.50;17.47;;;;;;;;;;4982044;28;20544;-84
2024/03/08 03:39:40;;;;;;;28.77;16.20;;;;;;;;;;4959041;29;20614;-83
2024/03/08 03:42:45;;;;;;;32.33;17.33;;;;;;;;;;4959739;29;21077;-83
2024/03/08 03:45:50;;;;;;;30.23;18.03;;;;;;;;;;4960181;29;20551;-83
2024/03/08 03:48:55;;;;;;;32.13;16.37;;;;;;;;;;4960206;29;20595;-83
2024/03/08 03:52:00;;;;;;;28.83;17.07;;;;;;;;;;4958941;29;20539;-86
2024/03/08 03:55:04;;;;;;;30.13;16.40;;;;;;;;;;4959186;29;20544;-86
2024/03/08 03:58:09;;;;;;;31.73;17.63;;;;;;;;;;4970194;28;20556;-86
2024/03/08 04:01:14;;;;;;;34.17;18.77;;;;;;;;;;4959612;29;20552;-86
2024/03/08 04:04:18;;;;;;;35.87;18.60;;;;;;;;;;4969726;28;21083;-86
2024/03/08 04:07:22;;;;;;;34.27;18.10;;;;;;;;;;4958452;29;20547;-86
2024/03/08 04:10:26;;;;;;;34.07;17.47;;;;;;;;;;4969568;28;20654;-86
2024/03/08 04:13:31;;;;;;;31.17;18.20;;;;;;;;;;4981927;28;20547;-86
2024/03/08 04:16:34;;;;;;;34.37;18.97;;;;;;;;;;4968183;28;20567;-86
2024/03/08 04:19:39;;;;;;;31.93;17.70;;;;;;;;;;4970004;28;20626;-86
2024/03/08 04:22:44;;;;;;;37.17;19.17;;;;;;;;;;4959141;29;20874;-85
2024/03/08 04:25:48;;;;;;;31.30;17.13;;;;;;;;;;4969010;28;20559;-86
2024/03/08 04:28:52;;;;;;;33.33;18.53;;;;;;;;;;4980739;28;20608;-86
2024/03/08 04:31:56;;;;;;;34.03;18.97;;;;;;;;;;4958519;29;21110;-86
2024/03/08 04:35:01;;;;;;;31.57;18.20;;;;;;;;;;4980488;28;20535;-86
2024/03/08 04:38:05;;;;;;;35.47;17.83;;;;;;;;;;4958110;29;20563;-86
2024/03/08 04:41:10;;;;;;;31.50;18.73;;;;;;;;;;4957998;29;21073;-87
2024/03/08 04:44:14;;;;;;;34.33;17.37;;;;;;;;;;4980050;28;20544;-86
2024/03/08 04:47:18;;;;;;;35.53;17.33;;;;;;;;;;4979900;28;21155;-86
2024/03/08 04:50:23;;;;;;;35.40;19.00;;;;;;;;;;4969038;28;20666;-86
2024/03/08 04:53:27;;;;;;;31.17;17.57;;;;;;;;;;4969203;28;20551;-87
2024/03/08 04:56:31;;;;;;;35.43;19.43;;;;;;;;;;4958097;29;20652;-86
2024/03/08 04:59:35;;;;;;;38.23;19.23;;;;;;;;;;4969151;28;20611;-86
2024/03/08 05:02:41;;;;;;;34.07;18.33;;;;;;;;;;4968479;28;20560;-86
2024/03/08 05:05:45;;;;;;;35.97;19.67;;;;;;;;;;4958781;29;20543;-87
2024/03/08 05:08:50;;;;;;;38.20;19.17;;;;;;;;;;4967998;28;20615;-86
2024/03/08 05:11:54;;;;;;;32.53;19.20;;;;;;;;;;4968516;28;20560;-86
2024/03/08 05:14:58;;;;;;;34.50;18.70;;;;;;;;;;4968401;28;20874;-86
2024/03/08 05:18:02;;;;;;;37.40;19.27;;;;;;;;;;4956797;29;20559;-86
2024/03/08 05:21:06;;;;;;;38.10;19.90;;;;;;;;;;4958452;29;20559;-84
2024/03/08 05:24:11;;;;;;;37.33;20.47;;;;;;;;;;4979669;28;20563;-87
2024/03/08 05:27:16;;;;;;;39.30;20.63;;;;;;;;;;4956408;28;20559;-87
2024/03/08 05:30:21;;;;;;;39.03;19.57;;;;;;;;;;4967566;28;20661;-87
2024/03/08 05:33:25;;;;;;;41.27;21.47;;;;;;;;;;4957240;29;20580;-87
2024/03/08 05:36:30;;;;;;;39.27;20.07;;;;;;;;;;4978759;28;20567;-86
2024/03/08 05:39:34;;;;;;;40.93;19.73;;;;;;;;;;4956832;29;20611;-86
2024/03/08 05:42:38;;;;;;;39.80;20.27;;;;;;;;;;4957865;29;20544;-87
2024/03/08 05:45:42;;;;;;;41.20;20.43;;;;;;;;;;4967575;28;20556;-87
2024/03/08 05:48:46;;;;;;;44.77;20.27;;;;;;;;;;4978120;28;20559;-87
2024/03/08 05:51:51;;;;;;;41.00;20.10;;;;;;;;;;4967698;28;20564;-89
2024/03/08 05:54:55;;;;;;;44.80;21.57;;;;;;;;;;4957007;29;20559;-89
2024/03/08 05:58:01;;;;;;;40.07;20.40;;;;;;;;;;4967835;28;20559;-88
2024/03/08 06:01:07;;;;;;;42.10;21.13;;;;;;;;;;4956901;29;20548;-89
2024/03/08 06:04:14;;;;;;;43.77;21.63;;;;;;;;;;4956277;29;20555;-88
2024/03/08 06:07:20;;;;;;;42.97;22.83;;;;;;;;;;4979632;28;20560;-89
2024/03/08 06:10:24;;;;;;;40.23;21.07;;;;;;;;;;4967854;28;21227;-89
2024/03/08 06:13:31;;;;;;;41.70;21.80;;;;;;;;;;4956801;28;20610;-88
2024/03/08 06:16:35;;;;;;;41.47;21.97;;;;;;;;;;4967669;28;20556;-89
2024/03/08 06:19:42;;;;;;;44.80;21.60;;;;;;;;;;4979547;28;20627;-89
2024/03/08 06:22:46;;;;;;;40.73;20.30;;;;;;;;;;4968508;28;20548;-89
2024/03/08 06:25:50;;;;;;;43.47;21.57;;;;;;;;;;4968325;28;20893;-89
2024/03/08 06:28:55;;;;;;;43.77;22.60;;;;;;;;;;4956348;29;20547;-87
2024/03/08 06:32:00;;;;;;;45.03;22.30;;;;;;;;;;4955179;29;20552;-87
2024/03/08 06:35:06;;;;;;;43.53;22.43;;;;;;;;;;4979586;28;20559;-87
2024/03/08 06:38:11;;;;;;;42.87;22.83;;;;;;;;;;4976838;28;20555;-87
2024/03/08 06:41:15;;;;;;;43.87;22.80;;;;;;;;;;4955416;29;20560;-87
2024/03/08 06:44:21;;;;;;;45.50;22.53;;;;;;;;;;4944478;29;20548;-87
2024/03/08 06:47:25;;;;;;;39.70;21.43;;;;;;;;;;4955151;29;21057;-87
2024/03/08 06:50:32;;;;;;;44.07;22.33;;;;;;;;;;4976771;28;20666;-87
2024/03/08 06:53:36;;;;;;;39.87;22.87;;;;;;;;;;4966539;28;20559;-87
2024/03/08 06:56:41;;;;;;;47.00;23.10;;;;;;;;;;4965734;28;20931;-87
2024/03/08 06:59:45;;;;;;;42.40;22.37;;;;;;;;;;4954957;29;21082;-87
2024/03/08 07:02:49;;;;;;;41.53;21.87;;;;;;;;;;4955294;29;20895;-87
2024/03/08 07:05:54;;;;;;;43.30;22.50;;;;;;;;;;4954783;29;20558;-86
2024/03/08 07:08:59;;;;;;;42.33;22.17;;;;;;;;;;4954968;29;20536;-86
2024/03/08 07:12:03;;;;;;;45.43;23.37;;;;;;;;;;4966112;28;20524;-87
2024/03/08 07:15:08;;;;;;;39.97;21.67;;;;;;;;;;4955161;29;20543;-87
2024/03/08 07:18:14;;;;;;;45.17;22.87;;;;;;;;;;4954937;29;20544;-87
2024/03/08 07:21:19;;;;;;;41.37;21.57;;;;;;;;;;4966376;28;21056;-87
2024/03/08 07:24:40;;;;;;;39.80;21.83;;;;;;;;;;4966253;28;20655;-87
2024/03/08 07:27:44;;;;;;;38.70;21.10;;;;;;;;;;4966183;28;20553;-87
2024/03/08 07:33:53;;;;;;;37.17;20.60;;;;;;;;;;4955918;29;20547;-86
2024/03/08 07:36:57;;;;;;;44.67;21.83;;;;;;;;;;4965983;28;20539;-87
2024/03/08 07:40:01;;;;;;;37.07;21.23;;;;;;;;;;4977251;28;20619;-87
2024/03/08 07:43:06;;;;;;;38.97;21.57;;;;;;;;;;4966592;28;20539;-87
2024/03/08 07:46:10;;;;;;;44.00;21.03;;;;;;;;;;4977337;28;20559;-87
2024/03/08 07:49:15;;;;;;;38.00;21.53;;;;;;;;;;4977211;28;21234;-87
2024/03/08 07:52:19;;;;;;;38.20;20.87;;;;;;;;;;4970500;28;20536;-88
2024/03/08 07:55:24;;;;;;;39.47;21.10;;;;;;;;;;4970477;28;20544;-87
2024/03/08 07:58:29;;;;;;;40.67;21.43;;;;;;;;;;4958850;29;21076;-87
2024/03/08 08:01:33;;;;;;;39.63;21.27;;;;;;;;;;4958434;29;20559;-87
2024/03/08 08:04:38;;;;;;;38.30;20.87;;;;;;;;;;4970229;28;20569;-91
2024/03/08 08:07:44;;;;;;;45.77;23.63;;;;;;;;;;4980656;28;21130;-87
2024/03/08 08:10:49;;;;;;;38.40;21.50;;;;;;;;;;4958706;29;20650;-87
2024/03/08 08:13:54;;;;;;;36.90;21.40;;;;;;;;;;4970097;28;20543;-87
2024/03/08 08:17:03;;;;;;;36.53;21.03;;;;;;;;;;4969433;28;20547;-87
2024/03/08 08:20:09;;;;;;;37.27;20.23;;;;;;;;;;4958174;29;20215;-88
2024/03/08 08:23:13;;;;;;;37.93;20.63;;;;;;;;;;4981104;28;20544;-87
2024/03/08 08:26:17;;;;;;;35.17;20.27;;;;;;;;;;4958645;29;20183;-87
2024/03/08 08:29:22;;;;;;;35.33;18.87;;;;;;;;;;4969233;28;20222;-88
2024/03/08 08:32:26;;;;;;;35.40;20.83;;;;;;;;;;4968959;28;20532;-88
2024/03/08 08:35:31;;;;;;;32.03;18.33;;;;;;;;;;4969618;28;20543;-87
2024/03/08 08:38:35;;;;;;;32.33;18.33;;;;;;;;;;4958282;29;20540;-87
2024/03/08 08:41:42;;;;;;;42.63;19.93;;;;;;;;;;4957725;29;20633;-88
2024/03/08 08:44:47;;;;;;;33.80;19.57;;;;;;;;;;4980378;28;20625;-87
2024/03/08 08:47:52;;;;;;;30.70;18.60;;;;;;;;;;4980127;28;20641;-88
2024/03/08 08:50:56;;;;;;;33.10;19.30;;;;;;;;;;4979466;28;20235;-87
2024/03/08 08:54:00;;;;;;;29.83;17.33;;;;;;;;;;4969496;28;20184;-88
2024/03/08 08:57:07;;;;;;;29.80;17.90;;;;;;;;;;4979533;28;20637;-88
2024/03/08 09:00:14;;;;;;;28.77;16.90;;;;;;;;;;4968018;28;20215;-88
2024/03/08 09:03:18;;;;;;;30.17;18.50;;;;;;;;;;4967503;28;20184;-88
2024/03/08 09:06:24;;;;;;;28.17;17.67;;;;;;;;;;4968070;28;20184;-88
2024/03/08 09:09:29;;;;;;;33.20;18.13;;;;;;;;;;4956876;29;20215;-88
2024/03/08 09:12:33;;;;;;;26.23;16.47;;;;;;;;;;4967724;28;20179;-88
2024/03/08 09:15:40;;;;;;;27.30;16.47;;;;;;;;;;4967923;28;20633;-88
2024/03/08 09:18:44;;;;;;;28.73;17.43;;;;;;;;;;4968360;28;20526;-89
2024/03/08 09:21:49;;;;;;;30.37;17.83;;;;;;;;;;4967490;28;20618;-88
2024/03/08 09:24:53;;;;;;;25.37;15.63;;;;;;;;;;4967451;28;20180;-88
2024/03/08 09:27:58;;;;;;;28.90;15.97;;;;;;;;;;4967595;28;20183;-88
2024/03/08 09:31:02;;;;;;;24.10;15.10;;;;;;;;;;4956916;29;20227;-86
2024/03/08 09:34:08;;;;;;;23.80;15.60;;;;;;;;;;4979107;28;20191;-86
2024/03/08 09:37:12;;;;;;;24.87;16.33;;;;;;;;;;4978582;28;20176;-87
2024/03/08 09:40:19;;;;;;;28.60;16.03;;;;;;;;;;4956437;29;20219;-89
2024/03/08 09:43:24;;;;;;;25.07;15.37;;;;;;;;;;4979248;28;20184;-88
2024/03/08 09:46:28;;;;;;;24.00;14.70;;;;;;;;;;4956447;29;20183;-88
2024/03/08 09:49:32;;;;;;;23.03;15.40;;;;;;;;;;4967269;28;20231;-88
2024/03/08 09:52:37;;;;;;;22.17;14.27;;;;;;;;;;4967367;28;20180;-88
2024/03/08 09:55:44;;;;;;;23.67;14.53;;;;;;;;;;4967151;28;20192;-88
2024/03/08 09:59:06;;;;;;;25.63;16.03;;;;;;;;;;4967049;28;20187;-88
2024/03/08 10:02:14;;;;;;;24.87;14.97;;;;;;;;;;4955736;29;20188;-87
2024/03/08 10:05:19;;;;;;;22.80;14.63;;;;;;;;;;4978393;28;20183;-88
2024/03/08 10:08:23;;;;;;;22.50;14.30;;;;;;;;;;4967045;28;20184;-88
2024/03/08 10:11:27;;;;;;;22.53;14.10;;;;;;;;;;4967057;28;20211;-87
2024/03/08 10:14:32;;;;;;;25.93;15.13;;;;;;;;;;4982664;28;20179;-88
2024/03/08 10:17:36;;;;;;;24.90;15.20;;;;;;;;;;4960138;29;20183;-89
2024/03/08 10:20:42;;;;;;;29.80;15.20;;;;;;;;;;4971357;28;20566;-88
2024/03/08 10:23:48;;;;;;;23.10;14.33;;;;;;;;;;4960898;29;20196;-88
2024/03/08 10:26:54;;;;;;;24.87;15.13;;;;;;;;;;4982184;28;20179;-87
2024/03/08 10:29:58;;;;;;;22.80;14.40;;;;;;;;;;4960833;29;20577;-87
2024/03/08 10:33:05;;;;;;;24.53;14.80;;;;;;;;;;4971063;28;20182;-87
2024/03/08 10:36:12;;;;;;;22.30;13.67;;;;;;;;;;4982160;28;20660;-87
2024/03/08 10:39:23;;;;;;;23.77;15.07;;;;;;;;;;4970551;28;20222;-88
2024/03/08 10:42:29;;;;;;;23.60;14.87;;;;;;;;;;4971538;28;20183;-88
2024/03/08 10:45:42;;;;;;;23.17;13.90;;;;;;;;;;4970970;28;20187;-88
2024/03/08 10:48:49;;;;;;;20.57;13.40;;;;;;;;;;4951814;29;20557;-88
2024/03/08 10:51:54;;;;;;;20.67;12.47;;;;;;;;;;4986786;28;20222;-88
2024/03/08 10:55:00;;;;;;;21.97;14.37;;;;;;;;;;4975477;28;20184;-88
2024/03/08 10:58:04;;;;;;;22.60;13.87;;;;;;;;;;4970878;28;20187;-88
2024/03/08 11:01:10;;;;;;;21.40;13.50;;;;;;;;;;4987397;28;20519;-88
2024/03/08 11:04:15;;;;;;;21.10;13.67;;;;;;;;;;4987612;28;20190;-89
2024/03/08 11:07:20;;;;;;;20.80;13.43;;;;;;;;;;4964224;29;20210;-88
2024/03/08 11:10:24;;;;;;;19.37;12.47;;;;;;;;;;4975100;28;20225;-88
2024/03/08 11:13:35;;;;;;;19.23;12.87;;;;;;;;;;4975549;28;20190;-88
2024/03/08 11:16:43;;;;;;;19.10;12.03;;;;;;;;;;4964182;29;20183;-87
2024/03/08 11:19:48;;;;;;;19.50;13.17;;;;;;;;;;4974611;28;20230;-88
2024/03/08 11:22:54;;;;;;;23.23;13.67;;;;;;;;;;4964322;29;20187;-88
2024/03/08 11:25:59;;;;;;;20.10;13.07;;;;;;;;;;4966002;28;20190;-89
2024/03/08 11:29:32;;;;;;;19.53;12.43;;;;;;;;;;4988949;28;20223;-89
2024/03/08 11:32:38;;;;;;;19.30;12.00;;;;;;;;;;4966549;29;20215;-89
2024/03/08 11:35:45;;;;;;;18.93;12.33;;;;;;;;;;4988717;28;20640;-89
2024/03/08 11:38:52;;;;;;;16.53;11.50;;;;;;;;;;4988676;28;20176;-88
2024/03/08 11:41:56;;;;;;;19.53;11.60;;;;;;;;;;4977274;28;20180;-89
2024/03/08 11:45:03;;;;;;;17.63;11.37;;;;;;;;;;4976484;28;20180;-88
2024/03/08 11:48:08;;;;;;;16.83;11.57;;;;;;;;;;4966283;29;20645;-89
2024/03/08 11:51:14;;;;;;;17.27;10.80;;;;;;;;;;4966322;29;20207;-86
2024/03/08 11:54:21;;;;;;;17.77;11.27;;;;;;;;;;4976177;28;20192;-86
2024/03/08 11:57:25;;;;;;;19.07;11.27;;;;;;;;;;4975421;28;20183;-85
2024/03/08 12:00:38;;;;;;;18.70;10.90;;;;;;;;;;4974948;28;20700;-86
2024/03/08 12:03:54;;;;;;;16.80;11.13;;;;;;;;;;4963329;29;20531;-85
2024/03/08 12:07:08;;;;;;;17.43;10.93;;;;;;;;;;4965033;29;20187;-86
2024/03/08 12:10:21;;;;;;;18.47;11.03;;;;;;;;;;4962414;29;20226;-84
2024/03/08 12:13:31;;;;;;;14.40;9.83;;;;;;;;;;4974632;28;20191;-88
2024/03/08 12:16:37;;;;;;;16.20;10.50;;;;;;;;;;4973955;28;20179;-86
2024/03/08 12:19:46;;;;;;;13.27;9.23;;;;;;;;;;4974059;28;20711;-85
2024/03/08 12:22:58;;;;;;;13.27;8.93;;;;;;;;;;4963369;29;20176;-85
2024/03/08 12:26:17;;;;;;;13.27;9.53;;;;;;;;;;4962944;29;20187;-85
2024/03/08 12:29:26;;;;;;;15.33;9.77;;;;;;;;;;4973163;28;20216;-85
2024/03/08 12:32:31;;;;;;;12.67;8.80;;;;;;;;;;4972746;28;20211;-85
2024/03/08 12:35:37;;;;;;;14.40;9.70;;;;;;;;;;4984172;28;20192;-86
2024/03/08 12:38:44;;;;;;;15.70;9.73;;;;;;;;;;4962126;29;20180;-85
2024/03/08 12:41:51;;;;;;;12.77;8.70;;;;;;;;;;4961292;29;20187;-86
2024/03/08 12:44:55;;;;;;;14.17;9.30;;;;;;;;;;4972446;28;20514;-86
2024/03/08 12:47:59;;;;;;;16.80;9.57;;;;;;;;;;4949693;29;20645;-86
2024/03/08 12:51:04;;;;;;;14.43;10.10;;;;;;;;;;4960157;29;20223;-86
2024/03/08 12:54:10;;;;;;;14.77;9.90;;;;;;;;;;4970688;28;20187;-86
2024/03/08 12:57:14;;;;;;;15.53;9.73;;;;;;;;;;4981773;28;20187;-86
2024/03/08 13:00:23;;;;;;;15.60;10.10;;;;;;;;;;4970734;28;20566;-86
2024/03/08 13:03:28;;;;;;;14.50;10.33;;;;;;;;;;4960947;29;20183;-85
2024/03/08 13:06:32;;;;;;;15.47;10.20;;;;;;;;;;4962253;29;20199;-85
2024/03/08 13:09:37;;;;;;;13.67;9.87;;;;;;;;;;4962019;29;20222;-85
2024/03/08 13:12:44;;;;;;;13.50;9.20;;;;;;;;;;4962820;29;20215;-85
2024/03/08 13:15:49;;;;;;;15.80;8.17;;;;;;;;;;4972323;28;20183;-88
2024/03/08 13:18:53;;;;;;;12.97;9.20;;;;;;;;;;4971638;28;20180;-89
2024/03/08 13:21:57;;;;;;;12.90;8.43;;;;;;;;;;4960686;29;20175;-90
2024/03/08 13:25:02;;;;;;;13.10;8.63;;;;;;;;;;4964252;29;20175;-89
2024/03/08 13:28:06;;;;;;;12.43;8.73;;;;;;;;;;4976095;28;20183;-90
2024/03/08 13:31:10;;;;;;;12.17;8.93;;;;;;;;;;4983976;28;20179;-89
2024/03/08 13:34:15;;;;;;;14.07;8.33;;;;;;;;;;4982764;28;20187;-89
2024/03/08 13:37:19;;;;;;;12.20;7.47;;;;;;;;;;4959864;29;20184;-90
2024/03/08 13:40:24;;;;;;;11.50;7.83;;;;;;;;;;4970509;28;20223;-89
2024/03/08 13:43:28;;;;;;;11.53;7.37;;;;;;;;;;4981912;28;20180;-90
2024/03/08 13:46:32;;;;;;;11.13;7.33;;;;;;;;;;4949347;29;20188;-89
2024/03/08 13:49:36;;;;;;;12.07;7.93;;;;;;;;;;4970388;28;20230;-90
2024/03/08 13:52:40;;;;;;;13.13;8.60;;;;;;;;;;4959272;29;20557;-89
2024/03/08 13:55:45;;;;;;;12.03;8.73;;;;;;;;;;4959268;29;20526;-89
2024/03/08 13:58:49;;;;;;;14.77;8.03;;;;;;;;;;4969826;28;20183;-89
2024/03/08 14:01:54;;;;;;;14.13;8.13;;;;;;;;;;4969592;28;20183;-90
2024/03/08 14:05:01;;;;;;;11.57;8.50;;;;;;;;;;4969972;28;20187;-89
2024/03/08 14:08:09;;;;;;;16.10;8.80;;;;;;;;;;4969714;28;20176;-90
2024/03/08 14:11:13;;;;;;;14.00;9.07;;;;;;;;;;4969234;28;20187;-89
2024/03/08 14:14:17;;;;;;;12.67;7.80;;;;;;;;;;4969123;28;20188;-89
2024/03/08 14:17:22;;;;;;;13.57;7.73;;;;;;;;;;4968904;28;20183;-89
2024/03/08 14:20:27;;;;;;;11.77;7.47;;;;;;;;;;4969426;28;20219;-89
2024/03/08 14:23:32;;;;;;;10.67;7.43;;;;;;;;;;4957509;29;20180;-89
2024/03/08 14:26:38;;;;;;;9.73;6.70;;;;;;;;;;4958307;29;20180;-89
2024/03/08 14:29:43;;;;;;;10.43;7.03;;;;;;;;;;4969072;28;20684;-89
2024/03/08 14:32:47;;;;;;;10.07;7.07;;;;;;;;;;4957358;29;20219;-89
2024/03/08 14:35:51;;;;;;;9.20;7.03;;;;;;;;;;4979979;28;20188;-90
2024/03/08 14:38:56;;;;;;;10.37;6.70;;;;;;;;;;4979674;28;20184;-89
2024/03/08 14:42:01;;;;;;;9.67;6.80;;;;;;;;;;4967827;28;20183;-89
2024/03/08 14:45:07;;;;;;;19.33;6.70;;;;;;;;;;4968062;28;20183;-90
2024/03/08 14:48:11;;;;;;;8.97;6.03;;;;;;;;;;4979047;28;20180;-89
2024/03/08 14:51:15;;;;;;;9.57;6.60;;;;;;;;;;4979509;28;20184;-89
2024/03/08 14:54:22;;;;;;;9.77;6.83;;;;;;;;;;4979026;28;20645;-89
2024/03/08 14:57:26;;;;;;;10.43;6.83;;;;;;;;;;4957238;29;20183;-89
2024/03/08 15:00:33;;;;;;;12.93;6.57;;;;;;;;;;4969933;28;20214;-89
2024/03/08 15:03:45;;;;;;;9.70;7.00;;;;;;;;;;4971280;28;20641;-89
2024/03/08 15:06:49;;;;;;;12.30;7.07;;;;;;;;;;4971191;28;20191;-89
2024/03/08 15:09:56;;;;;;;11.13;6.97;;;;;;;;;;4971487;28;20227;-89
2024/03/08 15:12:59;;;;;;;9.80;6.93;;;;;;;;;;4971418;28;20554;-89
2024/03/08 15:16:08;;;;;;;7.03;5.60;;;;;;;;;;4949288;29;20184;-89
2024/03/08 15:19:14;;;;;;;9.27;5.50;;;;;;;;;;4960344;29;20219;-89
2024/03/08 15:22:18;;;;;;;8.57;6.00;;;;;;;;;;4971252;28;20184;-89
2024/03/08 15:25:25;;;;;;;7.07;5.60;;;;;;;;;;4960034;29;20697;-89
2024/03/08 15:28:36;;;;;;;9.30;6.17;;;;;;;;;;4962042;29;20188;-89
2024/03/08 15:31:44;;;;;;;8.40;6.20;;;;;;;;;;4972782;28;20183;-90
2024/03/08 15:34:48;;;;;;;6.57;5.17;;;;;;;;;;4981993;28;20183;-89
2024/03/08 15:37:54;;;;;;;9.10;5.80;;;;;;;;;;4982153;28;20568;-89
2024/03/08 15:40:58;;;;;;;10.07;5.90;;;;;;;;;;4971016;28;20223;-89
2024/03/08 15:44:02;;;;;;;7.43;5.10;;;;;;;;;;4959640;29;20184;-89
2024/03/08 15:47:07;;;;;;;9.03;5.67;;;;;;;;;;4959832;29;20188;-89
2024/03/08 15:50:12;;;;;;;7.13;5.13;;;;;;;;;;4970261;28;20235;-89
2024/03/08 15:53:16;;;;;;;8.37;5.57;;;;;;;;;;4982086;28;20211;-86
2024/03/08 15:56:23;;;;;;;11.47;6.50;;;;;;;;;;4959503;29;20572;-88
2024/03/08 15:59:29;;;;;;;10.60;6.30;;;;;;;;;;4960021;29;20215;-85
2024/03/08 16:02:33;;;;;;;8.87;6.30;;;;;;;;;;4960241;29;20637;-86
2024/03/08 16:05:41;;;;;;;9.40;6.43;;;;;;;;;;4982313;28;20180;-85
2024/03/08 16:08:45;;;;;;;8.80;6.30;;;;;;;;;;4970723;28;20187;-86
2024/03/08 16:11:49;;;;;;;8.63;6.10;;;;;;;;;;4970530;28;20550;-86
2024/03/08 16:14:53;;;;;;;9.47;6.57;;;;;;;;;;4970118;28;20191;-86
2024/03/08 16:17:57;;;;;;;10.50;6.73;;;;;;;;;;4981444;28;20180;-86
2024/03/08 16:21:04;;;;;;;9.97;7.20;;;;;;;;;;4958958;29;20697;-85
2024/03/08 16:24:09;;;;;;;10.20;6.77;;;;;;;;;;4981202;28;20184;-87
2024/03/08 16:27:14;;;;;;;13.40;8.53;;;;;;;;;;4959354;29;20541;-87
2024/03/08 16:30:19;;;;;;;12.83;7.90;;;;;;;;;;4970020;28;20219;-87
2024/03/08 16:33:24;;;;;;;10.27;7.20;;;;;;;;;;4982478;28;20216;-86
2024/03/08 16:36:28;;;;;;;13.90;8.13;;;;;;;;;;4970558;28;20187;-87
2024/03/08 16:39:32;;;;;;;9.87;7.17;;;;;;;;;;4984362;28;20692;-86
2024/03/08 16:42:39;;;;;;;11.00;8.00;;;;;;;;;;4961412;29;20179;-86
2024/03/08 16:45:43;;;;;;;13.23;8.60;;;;;;;;;;4970199;28;20649;-86
2024/03/08 16:48:47;;;;;;;11.93;7.40;;;;;;;;;;4969980;28;20196;-86
2024/03/08 16:51:52;;;;;;;13.37;7.47;;;;;;;;;;4981345;28;20179;-86
2024/03/08 16:55:13;;;;;;;16.87;9.30;;;;;;;;;;4969470;28;20171;-86
2024/03/08 16:58:17;;;;;;;12.00;7.63;;;;;;;;;;4958404;29;20184;-86
2024/03/08 17:01:22;;;;;;;11.03;7.13;;;;;;;;;;4959213;29;20183;-87
2024/03/08 17:04:27;;;;;;;11.80;7.23;;;;;;;;;;4958728;28;20179;-86
2024/03/08 17:07:33;;;;;;;12.33;7.47;;;;;;;;;;4958256;29;20636;-86
2024/03/08 17:10:37;;;;;;;14.27;8.07;;;;;;;;;;4980821;28;20219;-86
2024/03/08 17:13:42;;;;;;;14.33;8.40;;;;;;;;;;4968979;28;20211;-85
2024/03/08 17:16:46;;;;;;;11.80;7.23;;;;;;;;;;4969279;28;20192;-85
2024/03/08 17:19:51;;;;;;;11.13;6.93;;;;;;;;;;4957691;29;20219;-85
2024/03/08 17:22:56;;;;;;;11.10;7.30;;;;;;;;;;4968459;28;20183;-85
2024/03/08 17:26:00;;;;;;;9.23;6.50;;;;;;;;;;4968923;28;20188;-85
2024/03/08 17:29:04;;;;;;;10.43;6.93;;;;;;;;;;4958670;29;20219;-86
2024/03/08 17:32:08;;;;;;;9.97;5.97;;;;;;;;;;4969049;28;20538;-85
2024/03/08 17:35:15;;;;;;;9.37;6.87;;;;;;;;;;4957515;29;20180;-85
2024/03/08 17:38:21;;;;;;;10.23;6.40;;;;;;;;;;4958390;29;20187;-85
2024/03/08 17:41:25;;;;;;;8.73;6.07;;;;;;;;;;4969197;28;20188;-85
2024/03/08 17:44:31;;;;;;;10.80;7.27;;;;;;;;;;4980063;28;20196;-85
2024/03/08 17:47:38;;;;;;;11.40;6.23;;;;;;;;;;4946984;29;20645;-85
2024/03/08 17:50:42;;;;;;;11.57;6.07;;;;;;;;;;4980178;28;20222;-85
2024/03/08 17:53:51;;;;;;;9.20;6.10;;;;;;;;;;4958160;29;20553;-85
2024/03/08 17:56:55;;;;;;;8.67;5.57;;;;;;;;;;4958364;29;20188;-85
2024/03/08 18:00:01;;;;;;;9.07;6.27;;;;;;;;;;4957960;29;20219;-85
2024/03/08 18:03:12;;;;;;;10.53;6.43;;;;;;;;;;4958560;29;20175;-84
2024/03/08 18:06:17;;;;;;;9.20;5.77;;;;;;;;;;4981003;28;20184;-83
2024/03/08 18:09:23;;;;;;;9.80;6.40;;;;;;;;;;4958933;29;20223;-85